sensor_id;sensor_type;location;lat;lon;timestamp;P1;durP1;ratioP1;P2;durP2;ratioP2
7761;SDS011;3925;48.636;9.516;2023-06-01T00:00:52;6.57;;;4.30;;
7761;SDS011;3925;48.636;9.516;2023-06-01T00:03:21;8.10;;;5.03;;
7761;SDS011;3925;48.636;9.516;2023-06-01T00:05:49;8.00;;;4.97;;
7761;SDS011;3925;48.636;9.516;2023-06-01T00:08:16;5.30;;;4.80;;
7761;SDS011;3925;48.636;9.516;2023-06-01T00:10:43;7.33;;;4.73;;
7761;SDS011;3925;48.636;9.516;2023-06-01T00:13:09;9.50;;;4.73;;
7761;SDS011;3925;48.636;9.516;2023-06-01T00:15:36;6.70;;;4.67;;
7761;SDS011;3925;48.636;9.516;2023-06-01T00:18:03;5.57;;;5.07;;
7761;SDS011;3925;48.636;9.516;2023-06-01T00:20:30;5.27;;;4.77;;
7761;SDS011;3925;48.636;9.516;2023-06-01T00:22:59;5.40;;;4.90;;
7761;SDS011;3925;48.636;9.516;2023-06-01T00:25:27;7.90;;;4.87;;
7761;SDS011;3925;48.636;9.516;2023-06-01T00:27:54;7.60;;;5.10;;
7761;SDS011;3925;48.636;9.516;2023-06-01T00:30:21;5.17;;;4.67;;
7761;SDS011;3925;48.636;9.516;2023-06-01T00:32:48;5.57;;;4.57;;
7761;SDS011;3925;48.636;9.516;2023-06-01T00:35:15;5.30;;;4.80;;
7761;SDS011;3925;48.636;9.516;2023-06-01T00:37:41;6.43;;;5.00;;
7761;SDS011;3925;48.636;9.516;2023-06-01T00:40:10;9.07;;;5.10;;
7761;SDS011;3925;48.636;9.516;2023-06-01T00:42:37;5.97;;;4.93;;
7761;SDS011;3925;48.636;9.516;2023-06-01T00:45:04;6.53;;;4.53;;
7761;SDS011;3925;48.636;9.516;2023-06-01T00:47:32;5.40;;;4.90;;
7761;SDS011;3925;48.636;9.516;2023-06-01T00:50:06;6.00;;;5.43;;
7761;SDS011;3925;48.636;9.516;2023-06-01T00:52:33;7.83;;;4.77;;
7761;SDS011;3925;48.636;9.516;2023-06-01T00:55:01;5.90;;;5.00;;
7761;SDS011;3925;48.636;9.516;2023-06-01T00:57:30;10.10;;;5.57;;
7761;SDS011;3925;48.636;9.516;2023-06-01T00:59:58;5.37;;;4.87;;
7761;SDS011;3925;48.636;9.516;2023-06-01T01:02:25;7.80;;;5.50;;
7761;SDS011;3925;48.636;9.516;2023-06-01T01:04:51;5.57;;;4.93;;
7761;SDS011;3925;48.636;9.516;2023-06-01T01:07:21;6.27;;;5.13;;
7761;SDS011;3925;48.636;9.516;2023-06-01T01:09:58;6.33;;;5.57;;
7761;SDS011;3925;48.636;9.516;2023-06-01T01:12:35;7.83;;;5.20;;
7761;SDS011;3925;48.636;9.516;2023-06-01T01:15:12;5.97;;;4.67;;
7761;SDS011;3925;48.636;9.516;2023-06-01T01:17:45;7.63;;;6.57;;
7761;SDS011;3925;48.636;9.516;2023-06-01T01:20:17;6.53;;;3.90;;
7761;SDS011;3925;48.636;9.516;2023-06-01T01:22:49;6.70;;;5.87;;
7761;SDS011;3925;48.636;9.516;2023-06-01T01:25:42;6.10;;;4.70;;
7761;SDS011;3925;48.636;9.516;2023-06-01T01:28:37;7.80;;;5.23;;
7761;SDS011;3925;48.636;9.516;2023-06-01T01:31:15;6.63;;;5.00;;
7761;SDS011;3925;48.636;9.516;2023-06-01T01:33:47;5.83;;;5.07;;
7761;SDS011;3925;48.636;9.516;2023-06-01T01:36:16;5.90;;;5.20;;
7761;SDS011;3925;48.636;9.516;2023-06-01T01:38:43;8.47;;;6.20;;
7761;SDS011;3925;48.636;9.516;2023-06-01T01:41:10;6.53;;;5.00;;
7761;SDS011;3925;48.636;9.516;2023-06-01T01:43:38;8.60;;;5.60;;
7761;SDS011;3925;48.636;9.516;2023-06-01T01:46:07;6.77;;;5.20;;
7761;SDS011;3925;48.636;9.516;2023-06-01T01:48:48;6.93;;;5.10;;
7761;SDS011;3925;48.636;9.516;2023-06-01T01:51:19;5.10;;;4.70;;
7761;SDS011;3925;48.636;9.516;2023-06-01T01:54:01;5.70;;;5.20;;
7761;SDS011;3925;48.636;9.516;2023-06-01T01:56:33;5.07;;;4.53;;
7761;SDS011;3925;48.636;9.516;2023-06-01T01:59:03;7.37;;;5.70;;
7761;SDS011;3925;48.636;9.516;2023-06-01T02:01:34;8.40;;;5.70;;
7761;SDS011;3925;48.636;9.516;2023-06-01T02:04:02;5.50;;;5.00;;
7761;SDS011;3925;48.636;9.516;2023-06-01T02:06:32;6.30;;;5.57;;
7761;SDS011;3925;48.636;9.516;2023-06-01T02:09:01;5.20;;;4.70;;
7761;SDS011;3925;48.636;9.516;2023-06-01T02:11:31;6.53;;;5.37;;
7761;SDS011;3925;48.636;9.516;2023-06-01T02:13:58;5.13;;;4.57;;
7761;SDS011;3925;48.636;9.516;2023-06-01T02:16:29;5.43;;;4.57;;
7761;SDS011;3925;48.636;9.516;2023-06-01T02:18:55;6.80;;;4.90;;
7761;SDS011;3925;48.636;9.516;2023-06-01T02:21:24;10.80;;;5.30;;
7761;SDS011;3925;48.636;9.516;2023-06-01T02:23:51;6.90;;;5.10;;
7761;SDS011;3925;48.636;9.516;2023-06-01T02:26:20;6.57;;;4.63;;
7761;SDS011;3925;48.636;9.516;2023-06-01T02:28:47;8.27;;;5.83;;
7761;SDS011;3925;48.636;9.516;2023-06-01T02:31:14;5.03;;;4.63;;
7761;SDS011;3925;48.636;9.516;2023-06-01T02:33:42;6.00;;;5.40;;
7761;SDS011;3925;48.636;9.516;2023-06-01T02:36:09;5.60;;;5.10;;
7761;SDS011;3925;48.636;9.516;2023-06-01T02:38:36;6.30;;;5.50;;
7761;SDS011;3925;48.636;9.516;2023-06-01T02:41:03;5.10;;;4.60;;
7761;SDS011;3925;48.636;9.516;2023-06-01T02:43:29;7.87;;;4.50;;
7761;SDS011;3925;48.636;9.516;2023-06-01T02:45:59;6.33;;;5.47;;
7761;SDS011;3925;48.636;9.516;2023-06-01T02:48:26;6.07;;;5.43;;
7761;SDS011;3925;48.636;9.516;2023-06-01T02:50:55;5.20;;;4.70;;
7761;SDS011;3925;48.636;9.516;2023-06-01T02:53:21;6.30;;;5.67;;
7761;SDS011;3925;48.636;9.516;2023-06-01T02:55:52;5.63;;;5.00;;
7761;SDS011;3925;48.636;9.516;2023-06-01T02:58:18;8.53;;;5.60;;
7761;SDS011;3925;48.636;9.516;2023-06-01T03:00:45;6.10;;;5.20;;
7761;SDS011;3925;48.636;9.516;2023-06-01T03:03:12;5.20;;;4.70;;
7761;SDS011;3925;48.636;9.516;2023-06-01T03:05:39;5.80;;;4.67;;
7761;SDS011;3925;48.636;9.516;2023-06-01T03:08:09;6.13;;;5.60;;
7761;SDS011;3925;48.636;9.516;2023-06-01T03:10:36;5.87;;;5.37;;
7761;SDS011;3925;48.636;9.516;2023-06-01T03:13:03;6.40;;;4.57;;
7761;SDS011;3925;48.636;9.516;2023-06-01T03:15:29;5.70;;;5.20;;
7761;SDS011;3925;48.636;9.516;2023-06-01T03:17:56;8.10;;;5.10;;
7761;SDS011;3925;48.636;9.516;2023-06-01T03:20:23;8.20;;;5.73;;
7761;SDS011;3925;48.636;9.516;2023-06-01T03:22:50;7.10;;;5.10;;
7761;SDS011;3925;48.636;9.516;2023-06-01T03:25:18;9.10;;;4.70;;
7761;SDS011;3925;48.636;9.516;2023-06-01T03:27:45;5.60;;;4.90;;
7761;SDS011;3925;48.636;9.516;2023-06-01T03:30:12;5.97;;;5.47;;
7761;SDS011;3925;48.636;9.516;2023-06-01T03:32:40;5.87;;;5.37;;
7761;SDS011;3925;48.636;9.516;2023-06-01T03:35:07;5.77;;;5.27;;
7761;SDS011;3925;48.636;9.516;2023-06-01T03:37:35;7.23;;;5.17;;
7761;SDS011;3925;48.636;9.516;2023-06-01T03:40:03;7.00;;;5.20;;
7761;SDS011;3925;48.636;9.516;2023-06-01T03:42:36;8.93;;;5.00;;
7761;SDS011;3925;48.636;9.516;2023-06-01T03:45:04;6.10;;;5.10;;
7761;SDS011;3925;48.636;9.516;2023-06-01T03:47:31;6.57;;;5.70;;
7761;SDS011;3925;48.636;9.516;2023-06-01T03:49:58;9.37;;;5.80;;
7761;SDS011;3925;48.636;9.516;2023-06-01T03:52:25;6.33;;;5.70;;
7761;SDS011;3925;48.636;9.516;2023-06-01T03:54:53;5.80;;;5.07;;
7761;SDS011;3925;48.636;9.516;2023-06-01T03:57:20;5.93;;;5.43;;
7761;SDS011;3925;48.636;9.516;2023-06-01T03:59:48;6.90;;;4.90;;
7761;SDS011;3925;48.636;9.516;2023-06-01T04:02:16;8.67;;;5.37;;
7761;SDS011;3925;48.636;9.516;2023-06-01T04:04:43;7.13;;;5.40;;
7761;SDS011;3925;48.636;9.516;2023-06-01T04:07:12;7.07;;;5.67;;
7761;SDS011;3925;48.636;9.516;2023-06-01T04:09:43;7.07;;;5.00;;
7761;SDS011;3925;48.636;9.516;2023-06-01T04:12:11;6.57;;;4.53;;
7761;SDS011;3925;48.636;9.516;2023-06-01T04:14:38;5.87;;;4.90;;
7761;SDS011;3925;48.636;9.516;2023-06-01T04:17:06;6.83;;;5.67;;
7761;SDS011;3925;48.636;9.516;2023-06-01T04:19:33;6.87;;;5.70;;
7761;SDS011;3925;48.636;9.516;2023-06-01T04:22:00;5.90;;;5.00;;
7761;SDS011;3925;48.636;9.516;2023-06-01T04:24:27;5.70;;;5.00;;
7761;SDS011;3925;48.636;9.516;2023-06-01T04:26:54;6.33;;;5.40;;
7761;SDS011;3925;48.636;9.516;2023-06-01T04:29:21;5.83;;;5.07;;
7761;SDS011;3925;48.636;9.516;2023-06-01T04:31:49;6.57;;;5.23;;
7761;SDS011;3925;48.636;9.516;2023-06-01T04:34:18;6.17;;;4.87;;
7761;SDS011;3925;48.636;9.516;2023-06-01T04:36:45;5.67;;;5.17;;
7761;SDS011;3925;48.636;9.516;2023-06-01T04:39:16;9.30;;;5.93;;
7761;SDS011;3925;48.636;9.516;2023-06-01T04:41:43;5.57;;;5.03;;
7761;SDS011;3925;48.636;9.516;2023-06-01T04:44:09;5.30;;;4.80;;
7761;SDS011;3925;48.636;9.516;2023-06-01T04:46:38;6.00;;;5.20;;
7761;SDS011;3925;48.636;9.516;2023-06-01T04:49:06;5.83;;;5.23;;
7761;SDS011;3925;48.636;9.516;2023-06-01T04:51:34;7.63;;;6.23;;
7761;SDS011;3925;48.636;9.516;2023-06-01T04:54:01;6.97;;;5.83;;
7761;SDS011;3925;48.636;9.516;2023-06-01T04:56:28;6.60;;;5.60;;
7761;SDS011;3925;48.636;9.516;2023-06-01T04:58:55;6.27;;;5.27;;
7761;SDS011;3925;48.636;9.516;2023-06-01T05:01:23;7.00;;;5.27;;
7761;SDS011;3925;48.636;9.516;2023-06-01T05:03:51;8.67;;;5.70;;
7761;SDS011;3925;48.636;9.516;2023-06-01T05:06:20;9.80;;;6.67;;
7761;SDS011;3925;48.636;9.516;2023-06-01T05:08:48;7.93;;;5.43;;
7761;SDS011;3925;48.636;9.516;2023-06-01T05:11:15;6.20;;;5.53;;
7761;SDS011;3925;48.636;9.516;2023-06-01T05:13:42;7.93;;;5.37;;
7761;SDS011;3925;48.636;9.516;2023-06-01T05:16:09;7.90;;;5.40;;
7761;SDS011;3925;48.636;9.516;2023-06-01T05:18:36;5.87;;;4.80;;
7761;SDS011;3925;48.636;9.516;2023-06-01T05:21:03;6.60;;;5.73;;
7761;SDS011;3925;48.636;9.516;2023-06-01T05:23:30;5.97;;;5.07;;
7761;SDS011;3925;48.636;9.516;2023-06-01T05:25:59;5.50;;;4.63;;
7761;SDS011;3925;48.636;9.516;2023-06-01T05:28:28;5.73;;;5.13;;
7761;SDS011;3925;48.636;9.516;2023-06-01T05:30:55;4.83;;;4.43;;
7761;SDS011;3925;48.636;9.516;2023-06-01T05:33:22;6.83;;;5.50;;
7761;SDS011;3925;48.636;9.516;2023-06-01T05:35:49;4.90;;;4.37;;
7761;SDS011;3925;48.636;9.516;2023-06-01T05:38:16;6.83;;;4.37;;
7761;SDS011;3925;48.636;9.516;2023-06-01T05:40:42;5.30;;;4.20;;
7761;SDS011;3925;48.636;9.516;2023-06-01T05:43:11;6.60;;;4.60;;
7761;SDS011;3925;48.636;9.516;2023-06-01T05:45:37;4.67;;;4.20;;
7761;SDS011;3925;48.636;9.516;2023-06-01T05:48:04;6.53;;;4.37;;
7761;SDS011;3925;48.636;9.516;2023-06-01T05:50:31;4.37;;;4.07;;
7761;SDS011;3925;48.636;9.516;2023-06-01T05:52:58;5.00;;;4.50;;
7761;SDS011;3925;48.636;9.516;2023-06-01T05:55:25;4.93;;;4.10;;
7761;SDS011;3925;48.636;9.516;2023-06-01T05:57:52;7.03;;;4.77;;
7761;SDS011;3925;48.636;9.516;2023-06-01T06:00:20;4.10;;;3.77;;
7761;SDS011;3925;48.636;9.516;2023-06-01T06:02:47;4.67;;;4.23;;
7761;SDS011;3925;48.636;9.516;2023-06-01T06:05:14;5.10;;;4.10;;
7761;SDS011;3925;48.636;9.516;2023-06-01T06:07:41;4.83;;;4.43;;
7761;SDS011;3925;48.636;9.516;2023-06-01T06:10:08;5.20;;;4.00;;
7761;SDS011;3925;48.636;9.516;2023-06-01T06:12:35;4.07;;;3.67;;
7761;SDS011;3925;48.636;9.516;2023-06-01T06:15:02;5.20;;;3.93;;
7761;SDS011;3925;48.636;9.516;2023-06-01T06:17:31;4.87;;;3.83;;
7761;SDS011;3925;48.636;9.516;2023-06-01T06:19:58;4.00;;;3.60;;
7761;SDS011;3925;48.636;9.516;2023-06-01T06:22:25;5.80;;;4.40;;
7761;SDS011;3925;48.636;9.516;2023-06-01T06:24:52;4.97;;;3.83;;
7761;SDS011;3925;48.636;9.516;2023-06-01T06:27:19;4.40;;;4.00;;
7761;SDS011;3925;48.636;9.516;2023-06-01T06:29:45;9.90;;;4.10;;
7761;SDS011;3925;48.636;9.516;2023-06-01T06:32:12;5.40;;;4.57;;
7761;SDS011;3925;48.636;9.516;2023-06-01T06:34:40;5.00;;;4.00;;
7761;SDS011;3925;48.636;9.516;2023-06-01T06:37:07;4.83;;;3.50;;
7761;SDS011;3925;48.636;9.516;2023-06-01T06:39:36;3.80;;;3.40;;
7761;SDS011;3925;48.636;9.516;2023-06-01T06:42:03;4.27;;;3.97;;
7761;SDS011;3925;48.636;9.516;2023-06-01T06:44:31;5.63;;;3.50;;
7761;SDS011;3925;48.636;9.516;2023-06-01T06:46:59;5.43;;;3.90;;
7761;SDS011;3925;48.636;9.516;2023-06-01T06:49:25;3.87;;;3.50;;
7761;SDS011;3925;48.636;9.516;2023-06-01T06:51:54;5.50;;;3.20;;
7761;SDS011;3925;48.636;9.516;2023-06-01T06:54:21;3.80;;;3.50;;
7761;SDS011;3925;48.636;9.516;2023-06-01T06:56:48;3.70;;;3.40;;
7761;SDS011;3925;48.636;9.516;2023-06-01T06:59:15;4.23;;;3.83;;
7761;SDS011;3925;48.636;9.516;2023-06-01T07:01:41;3.93;;;3.63;;
7761;SDS011;3925;48.636;9.516;2023-06-01T07:04:08;4.17;;;3.77;;
7761;SDS011;3925;48.636;9.516;2023-06-01T07:06:35;3.60;;;3.30;;
7761;SDS011;3925;48.636;9.516;2023-06-01T07:09:03;4.73;;;3.57;;
7761;SDS011;3925;48.636;9.516;2023-06-01T07:11:31;7.03;;;3.80;;
7761;SDS011;3925;48.636;9.516;2023-06-01T07:13:58;5.73;;;3.70;;
7761;SDS011;3925;48.636;9.516;2023-06-01T07:16:25;3.90;;;3.60;;
7761;SDS011;3925;48.636;9.516;2023-06-01T07:18:51;4.57;;;3.20;;
7761;SDS011;3925;48.636;9.516;2023-06-01T07:21:18;3.27;;;2.87;;
7761;SDS011;3925;48.636;9.516;2023-06-01T07:23:45;8.80;;;3.63;;
7761;SDS011;3925;48.636;9.516;2023-06-01T07:26:13;4.60;;;3.30;;
7761;SDS011;3925;48.636;9.516;2023-06-01T07:28:40;3.80;;;3.30;;
7761;SDS011;3925;48.636;9.516;2023-06-01T07:31:07;6.07;;;3.77;;
7761;SDS011;3925;48.636;9.516;2023-06-01T07:33:34;5.83;;;3.70;;
7761;SDS011;3925;48.636;9.516;2023-06-01T07:36:02;5.20;;;3.73;;
7761;SDS011;3925;48.636;9.516;2023-06-01T07:38:30;4.10;;;3.27;;
7761;SDS011;3925;48.636;9.516;2023-06-01T07:40:58;3.73;;;3.43;;
7761;SDS011;3925;48.636;9.516;2023-06-01T07:43:26;3.50;;;3.20;;
7761;SDS011;3925;48.636;9.516;2023-06-01T07:45:53;6.77;;;4.43;;
7761;SDS011;3925;48.636;9.516;2023-06-01T07:48:20;3.93;;;3.63;;
7761;SDS011;3925;48.636;9.516;2023-06-01T07:50:47;6.17;;;4.83;;
7761;SDS011;3925;48.636;9.516;2023-06-01T07:53:15;4.00;;;3.63;;
7761;SDS011;3925;48.636;9.516;2023-06-01T07:55:42;3.87;;;3.10;;
7761;SDS011;3925;48.636;9.516;2023-06-01T07:58:09;3.90;;;3.60;;
7761;SDS011;3925;48.636;9.516;2023-06-01T08:00:37;4.13;;;3.63;;
7761;SDS011;3925;48.636;9.516;2023-06-01T08:03:05;4.20;;;3.60;;
7761;SDS011;3925;48.636;9.516;2023-06-01T08:05:33;4.87;;;4.23;;
7761;SDS011;3925;48.636;9.516;2023-06-01T08:08:01;5.33;;;3.27;;
7761;SDS011;3925;48.636;9.516;2023-06-01T08:10:28;4.23;;;3.83;;
7761;SDS011;3925;48.636;9.516;2023-06-01T08:12:55;4.63;;;4.10;;
7761;SDS011;3925;48.636;9.516;2023-06-01T08:15:22;4.40;;;3.60;;
7761;SDS011;3925;48.636;9.516;2023-06-01T08:17:52;5.53;;;3.90;;
7761;SDS011;3925;48.636;9.516;2023-06-01T08:20:19;5.53;;;3.87;;
7761;SDS011;3925;48.636;9.516;2023-06-01T08:22:47;6.07;;;4.27;;
7761;SDS011;3925;48.636;9.516;2023-06-01T08:25:14;3.80;;;3.50;;
7761;SDS011;3925;48.636;9.516;2023-06-01T08:27:41;3.73;;;3.43;;
7761;SDS011;3925;48.636;9.516;2023-06-01T08:30:09;7.10;;;3.87;;
7761;SDS011;3925;48.636;9.516;2023-06-01T08:32:36;5.57;;;3.87;;
7761;SDS011;3925;48.636;9.516;2023-06-01T08:35:05;4.10;;;3.80;;
7761;SDS011;3925;48.636;9.516;2023-06-01T08:37:33;4.53;;;4.13;;
7761;SDS011;3925;48.636;9.516;2023-06-01T08:40:00;5.87;;;3.50;;
7761;SDS011;3925;48.636;9.516;2023-06-01T08:42:29;3.73;;;3.43;;
7761;SDS011;3925;48.636;9.516;2023-06-01T08:45:02;4.87;;;3.43;;
7761;SDS011;3925;48.636;9.516;2023-06-01T08:47:31;3.60;;;3.33;;
7761;SDS011;3925;48.636;9.516;2023-06-01T08:49:59;4.43;;;4.03;;
7761;SDS011;3925;48.636;9.516;2023-06-01T08:52:28;4.80;;;3.97;;
7761;SDS011;3925;48.636;9.516;2023-06-01T08:54:57;4.53;;;3.93;;
7761;SDS011;3925;48.636;9.516;2023-06-01T08:57:24;4.60;;;3.93;;
7761;SDS011;3925;48.636;9.516;2023-06-01T08:59:52;4.47;;;3.80;;
7761;SDS011;3925;48.636;9.516;2023-06-01T09:02:18;4.93;;;3.60;;
7761;SDS011;3925;48.636;9.516;2023-06-01T09:04:45;7.10;;;4.47;;
7761;SDS011;3925;48.636;9.516;2023-06-01T09:07:12;6.13;;;4.20;;
7761;SDS011;3925;48.636;9.516;2023-06-01T09:09:41;5.57;;;4.47;;
7761;SDS011;3925;48.636;9.516;2023-06-01T09:12:19;4.47;;;3.80;;
7761;SDS011;3925;48.636;9.516;2023-06-01T09:14:49;4.30;;;3.77;;
7761;SDS011;3925;48.636;9.516;2023-06-01T09:17:20;4.17;;;3.77;;
7761;SDS011;3925;48.636;9.516;2023-06-01T09:19:49;5.10;;;4.10;;
7761;SDS011;3925;48.636;9.516;2023-06-01T09:22:17;4.40;;;3.60;;
7761;SDS011;3925;48.636;9.516;2023-06-01T09:24:55;3.43;;;3.13;;
7761;SDS011;3925;48.636;9.516;2023-06-01T09:27:23;5.03;;;4.23;;
7761;SDS011;3925;48.636;9.516;2023-06-01T09:29:52;4.53;;;4.13;;
7761;SDS011;3925;48.636;9.516;2023-06-01T09:32:19;4.10;;;3.70;;
7761;SDS011;3925;48.636;9.516;2023-06-01T09:34:46;4.20;;;3.77;;
7761;SDS011;3925;48.636;9.516;2023-06-01T09:37:13;4.33;;;4.03;;
7761;SDS011;3925;48.636;9.516;2023-06-01T09:39:41;4.50;;;3.83;;
7761;SDS011;3925;48.636;9.516;2023-06-01T09:42:10;4.40;;;4.00;;
7761;SDS011;3925;48.636;9.516;2023-06-01T09:44:37;4.30;;;4.00;;
7761;SDS011;3925;48.636;9.516;2023-06-01T09:47:06;4.50;;;4.10;;
7761;SDS011;3925;48.636;9.516;2023-06-01T09:49:35;5.10;;;3.50;;
7761;SDS011;3925;48.636;9.516;2023-06-01T09:52:11;6.67;;;3.70;;
7761;SDS011;3925;48.636;9.516;2023-06-01T09:54:41;5.13;;;3.97;;
7761;SDS011;3925;48.636;9.516;2023-06-01T09:57:11;4.17;;;3.87;;
7761;SDS011;3925;48.636;9.516;2023-06-01T09:59:39;4.07;;;3.77;;
7761;SDS011;3925;48.636;9.516;2023-06-01T10:02:07;5.20;;;4.17;;
7761;SDS011;3925;48.636;9.516;2023-06-01T10:04:40;3.97;;;3.57;;
7761;SDS011;3925;48.636;9.516;2023-06-01T10:07:08;4.57;;;4.17;;
7761;SDS011;3925;48.636;9.516;2023-06-01T10:09:36;4.50;;;4.10;;
7761;SDS011;3925;48.636;9.516;2023-06-01T10:12:07;5.93;;;4.40;;
7761;SDS011;3925;48.636;9.516;2023-06-01T10:14:36;7.80;;;3.63;;
7761;SDS011;3925;48.636;9.516;2023-06-01T10:17:04;4.63;;;4.23;;
7761;SDS011;3925;48.636;9.516;2023-06-01T10:19:32;5.00;;;4.00;;
7761;SDS011;3925;48.636;9.516;2023-06-01T10:22:01;7.10;;;4.13;;
7761;SDS011;3925;48.636;9.516;2023-06-01T10:24:29;4.80;;;4.40;;
7761;SDS011;3925;48.636;9.516;2023-06-01T10:26:58;4.13;;;3.80;;
7761;SDS011;3925;48.636;9.516;2023-06-01T10:29:31;5.17;;;4.50;;
7761;SDS011;3925;48.636;9.516;2023-06-01T10:32:00;4.50;;;4.10;;
7761;SDS011;3925;48.636;9.516;2023-06-01T10:34:37;4.57;;;4.17;;
7761;SDS011;3925;48.636;9.516;2023-06-01T10:37:12;4.97;;;4.57;;
7761;SDS011;3925;48.636;9.516;2023-06-01T10:39:43;5.30;;;4.80;;
7761;SDS011;3925;48.636;9.516;2023-06-01T10:48:05;5.00;;;4.53;;
7761;SDS011;3925;48.636;9.516;2023-06-01T10:50:35;4.40;;;4.00;;
7761;SDS011;3925;48.636;9.516;2023-06-01T11:01:38;5.50;;;4.90;;
7761;SDS011;3925;48.636;9.516;2023-06-01T11:04:07;5.40;;;5.00;;
7761;SDS011;3925;48.636;9.516;2023-06-01T11:06:34;6.30;;;5.07;;
7761;SDS011;3925;48.636;9.516;2023-06-01T11:09:04;4.97;;;4.47;;
7761;SDS011;3925;48.636;9.516;2023-06-01T11:14:27;5.10;;;4.17;;
7761;SDS011;3925;48.636;9.516;2023-06-01T11:17:24;5.50;;;5.00;;
7761;SDS011;3925;48.636;9.516;2023-06-01T11:19:57;5.80;;;4.67;;
7761;SDS011;3925;48.636;9.516;2023-06-01T11:22:26;6.03;;;4.87;;
7761;SDS011;3925;48.636;9.516;2023-06-01T11:25:00;5.93;;;4.60;;
7761;SDS011;3925;48.636;9.516;2023-06-01T11:27:31;5.20;;;4.50;;
7761;SDS011;3925;48.636;9.516;2023-06-01T11:29:58;5.70;;;5.20;;
7761;SDS011;3925;48.636;9.516;2023-06-01T11:32:25;5.17;;;4.67;;
7761;SDS011;3925;48.636;9.516;2023-06-01T11:34:53;4.40;;;4.00;;
7761;SDS011;3925;48.636;9.516;2023-06-01T11:37:22;4.43;;;4.13;;
7761;SDS011;3925;48.636;9.516;2023-06-01T11:39:50;6.90;;;4.90;;
7761;SDS011;3925;48.636;9.516;2023-06-01T11:42:17;4.40;;;4.10;;
7761;SDS011;3925;48.636;9.516;2023-06-01T11:44:45;5.23;;;4.73;;
7761;SDS011;3925;48.636;9.516;2023-06-01T11:47:22;5.50;;;4.70;;
7761;SDS011;3925;48.636;9.516;2023-06-01T11:49:54;5.83;;;5.23;;
7761;SDS011;3925;48.636;9.516;2023-06-01T11:52:23;5.57;;;4.63;;
7761;SDS011;3925;48.636;9.516;2023-06-01T11:54:50;5.60;;;5.10;;
7761;SDS011;3925;48.636;9.516;2023-06-01T11:57:17;5.73;;;5.10;;
7761;SDS011;3925;48.636;9.516;2023-06-01T11:59:45;5.70;;;4.67;;
7761;SDS011;3925;48.636;9.516;2023-06-01T12:02:19;4.87;;;4.40;;
7761;SDS011;3925;48.636;9.516;2023-06-01T12:04:55;6.90;;;5.20;;
7761;SDS011;3925;48.636;9.516;2023-06-01T12:07:25;5.20;;;4.80;;
7761;SDS011;3925;48.636;9.516;2023-06-01T12:09:52;9.40;;;4.90;;
7761;SDS011;3925;48.636;9.516;2023-06-01T12:12:20;5.20;;;4.63;;
7761;SDS011;3925;48.636;9.516;2023-06-01T12:14:48;5.67;;;5.17;;
7761;SDS011;3925;48.636;9.516;2023-06-01T12:17:16;5.10;;;4.13;;
7761;SDS011;3925;48.636;9.516;2023-06-01T12:19:46;5.60;;;5.10;;
7761;SDS011;3925;48.636;9.516;2023-06-01T12:22:14;5.20;;;4.80;;
7761;SDS011;3925;48.636;9.516;2023-06-01T12:24:43;5.00;;;4.60;;
7761;SDS011;3925;48.636;9.516;2023-06-01T12:27:13;6.40;;;4.70;;
7761;SDS011;3925;48.636;9.516;2023-06-01T12:29:42;5.40;;;4.90;;
7761;SDS011;3925;48.636;9.516;2023-06-01T12:32:10;5.17;;;4.53;;
7761;SDS011;3925;48.636;9.516;2023-06-01T12:34:38;5.47;;;4.70;;
7761;SDS011;3925;48.636;9.516;2023-06-01T12:37:13;5.33;;;4.80;;
7761;SDS011;3925;48.636;9.516;2023-06-01T12:39:40;5.53;;;4.67;;
7761;SDS011;3925;48.636;9.516;2023-06-01T12:42:09;5.13;;;4.63;;
7761;SDS011;3925;48.636;9.516;2023-06-01T12:44:37;5.23;;;4.73;;
7761;SDS011;3925;48.636;9.516;2023-06-01T12:47:05;5.37;;;4.90;;
7761;SDS011;3925;48.636;9.516;2023-06-01T12:49:32;5.67;;;5.17;;
7761;SDS011;3925;48.636;9.516;2023-06-01T12:51:59;5.10;;;4.60;;
7761;SDS011;3925;48.636;9.516;2023-06-01T12:54:27;5.37;;;4.90;;
7761;SDS011;3925;48.636;9.516;2023-06-01T12:56:55;5.57;;;4.70;;
7761;SDS011;3925;48.636;9.516;2023-06-01T12:59:22;8.30;;;5.40;;
7761;SDS011;3925;48.636;9.516;2023-06-01T13:01:49;5.50;;;4.67;;
7761;SDS011;3925;48.636;9.516;2023-06-01T13:04:16;5.90;;;4.70;;
7761;SDS011;3925;48.636;9.516;2023-06-01T13:06:43;6.40;;;4.77;;
7761;SDS011;3925;48.636;9.516;2023-06-01T13:09:10;5.47;;;4.97;;
7761;SDS011;3925;48.636;9.516;2023-06-01T13:11:39;5.37;;;4.87;;
7761;SDS011;3925;48.636;9.516;2023-06-01T13:14:07;5.50;;;4.97;;
7761;SDS011;3925;48.636;9.516;2023-06-01T13:16:34;5.20;;;4.33;;
7761;SDS011;3925;48.636;9.516;2023-06-01T13:19:01;5.60;;;4.90;;
7761;SDS011;3925;48.636;9.516;2023-06-01T13:21:29;4.97;;;4.40;;
7761;SDS011;3925;48.636;9.516;2023-06-01T13:23:56;7.43;;;5.20;;
7761;SDS011;3925;48.636;9.516;2023-06-01T13:26:23;5.43;;;4.23;;
7761;SDS011;3925;48.636;9.516;2023-06-01T13:28:50;6.00;;;5.43;;
7761;SDS011;3925;48.636;9.516;2023-06-01T13:31:18;4.80;;;4.40;;
7761;SDS011;3925;48.636;9.516;2023-06-01T13:33:46;6.70;;;4.53;;
7761;SDS011;3925;48.636;9.516;2023-06-01T13:36:12;5.40;;;4.90;;
7761;SDS011;3925;48.636;9.516;2023-06-01T13:38:40;4.80;;;4.40;;
7761;SDS011;3925;48.636;9.516;2023-06-01T13:41:07;6.27;;;5.43;;
7761;SDS011;3925;48.636;9.516;2023-06-01T13:43:33;5.13;;;4.70;;
7761;SDS011;3925;48.636;9.516;2023-06-01T13:46:02;5.17;;;4.73;;
7761;SDS011;3925;48.636;9.516;2023-06-01T13:48:31;5.67;;;4.23;;
7761;SDS011;3925;48.636;9.516;2023-06-01T13:50:58;5.03;;;4.53;;
7761;SDS011;3925;48.636;9.516;2023-06-01T13:53:25;4.50;;;4.20;;
7761;SDS011;3925;48.636;9.516;2023-06-01T13:55:51;5.60;;;4.37;;
7761;SDS011;3925;48.636;9.516;2023-06-01T13:58:19;7.10;;;5.10;;
7761;SDS011;3925;48.636;9.516;2023-06-01T14:00:45;5.10;;;4.60;;
7761;SDS011;3925;48.636;9.516;2023-06-01T14:03:12;5.70;;;5.20;;
7761;SDS011;3925;48.636;9.516;2023-06-01T14:05:41;10.10;;;5.47;;
7761;SDS011;3925;48.636;9.516;2023-06-01T14:08:07;7.33;;;5.67;;
7761;SDS011;3925;48.636;9.516;2023-06-01T14:10:34;5.70;;;5.20;;
7761;SDS011;3925;48.636;9.516;2023-06-01T14:13:01;5.20;;;4.70;;
7761;SDS011;3925;48.636;9.516;2023-06-01T14:15:28;6.87;;;5.20;;
7761;SDS011;3925;48.636;9.516;2023-06-01T14:17:55;4.93;;;4.43;;
7761;SDS011;3925;48.636;9.516;2023-06-01T14:20:22;5.60;;;4.90;;
7761;SDS011;3925;48.636;9.516;2023-06-01T14:22:50;5.33;;;4.87;;
7761;SDS011;3925;48.636;9.516;2023-06-01T14:25:17;5.03;;;4.53;;
7761;SDS011;3925;48.636;9.516;2023-06-01T14:27:45;8.07;;;5.87;;
7761;SDS011;3925;48.636;9.516;2023-06-01T14:30:12;7.50;;;4.70;;
7761;SDS011;3925;48.636;9.516;2023-06-01T14:32:39;5.93;;;4.70;;
7761;SDS011;3925;48.636;9.516;2023-06-01T14:35:07;7.17;;;5.00;;
7761;SDS011;3925;48.636;9.516;2023-06-01T14:37:34;6.17;;;5.27;;
7761;SDS011;3925;48.636;9.516;2023-06-01T14:40:02;5.03;;;4.63;;
7761;SDS011;3925;48.636;9.516;2023-06-01T14:42:30;5.07;;;4.57;;
7761;SDS011;3925;48.636;9.516;2023-06-01T14:44:57;4.97;;;4.57;;
7761;SDS011;3925;48.636;9.516;2023-06-01T14:47:23;4.63;;;4.23;;
7761;SDS011;3925;48.636;9.516;2023-06-01T14:49:50;5.10;;;4.60;;
7761;SDS011;3925;48.636;9.516;2023-06-01T14:52:17;7.43;;;4.43;;
7761;SDS011;3925;48.636;9.516;2023-06-01T14:54:44;5.57;;;4.50;;
7761;SDS011;3925;48.636;9.516;2023-06-01T14:57:12;5.03;;;4.60;;
7761;SDS011;3925;48.636;9.516;2023-06-01T14:59:39;4.97;;;3.83;;
7761;SDS011;3925;48.636;9.516;2023-06-01T15:02:06;4.63;;;4.20;;
7761;SDS011;3925;48.636;9.516;2023-06-01T15:04:33;9.80;;;3.93;;
7761;SDS011;3925;48.636;9.516;2023-06-01T15:06:59;5.33;;;4.13;;
7761;SDS011;3925;48.636;9.516;2023-06-01T15:09:26;4.70;;;4.30;;
7761;SDS011;3925;48.636;9.516;2023-06-01T15:11:53;3.90;;;3.43;;
7761;SDS011;3925;48.636;9.516;2023-06-01T15:14:22;5.83;;;4.77;;
7761;SDS011;3925;48.636;9.516;2023-06-01T15:16:49;5.13;;;3.80;;
7761;SDS011;3925;48.636;9.516;2023-06-01T15:19:16;4.30;;;3.90;;
7761;SDS011;3925;48.636;9.516;2023-06-01T15:21:43;4.10;;;3.80;;
7761;SDS011;3925;48.636;9.516;2023-06-01T15:24:10;4.27;;;3.87;;
7761;SDS011;3925;48.636;9.516;2023-06-01T15:26:37;4.20;;;3.40;;
7761;SDS011;3925;48.636;9.516;2023-06-01T15:29:04;4.23;;;3.90;;
7761;SDS011;3925;48.636;9.516;2023-06-01T15:31:32;5.17;;;3.47;;
7761;SDS011;3925;48.636;9.516;2023-06-01T15:33:59;3.57;;;2.80;;
7761;SDS011;3925;48.636;9.516;2023-06-01T15:36:25;4.30;;;3.90;;
7761;SDS011;3925;48.636;9.516;2023-06-01T15:38:52;4.93;;;3.40;;